createdAt,value
2023-01-26T00:01:11.032Z,14.17
2023-01-26T00:03:39.380Z,13.57
2023-01-26T00:06:08.184Z,13.40
2023-01-26T00:08:38.132Z,13.50
2023-01-26T00:11:06.774Z,12.20
2023-01-26T00:13:35.060Z,13.23
2023-01-26T00:16:03.517Z,12.63
2023-01-26T00:18:33.229Z,12.50
2023-01-26T00:21:01.967Z,12.03
2023-01-26T00:23:30.514Z,11.77
2023-01-26T00:25:58.791Z,11.50
2023-01-26T00:28:27.165Z,11.80
2023-01-26T00:30:55.504Z,12.47
2023-01-26T00:33:23.756Z,11.93
2023-01-26T00:35:57.166Z,12.70
2023-01-26T00:38:25.530Z,11.70
2023-01-26T00:40:53.759Z,12.20
2023-01-26T00:43:22.075Z,11.83
2023-01-26T00:45:50.293Z,11.90
2023-01-26T00:48:18.657Z,12.87
2023-01-26T00:50:46.889Z,12.70
2023-01-26T00:53:17.095Z,12.97
2023-01-26T00:55:45.338Z,11.73
2023-01-26T00:58:13.614Z,11.70
2023-01-26T01:00:41.908Z,12.90
2023-01-26T01:03:10.241Z,13.97
2023-01-26T01:05:38.522Z,13.00
2023-01-26T01:08:07.247Z,13.93
2023-01-26T01:10:36.918Z,15.40
2023-01-26T01:13:05.222Z,14.80
2023-01-26T01:15:33.461Z,14.97
2023-01-26T01:18:01.688Z,14.90
2023-01-26T01:20:30.064Z,14.67
2023-01-26T01:22:58.341Z,14.83
2023-01-26T01:25:26.657Z,14.77
2023-01-26T01:27:56.393Z,15.07
2023-01-26T01:30:24.731Z,15.60
2023-01-26T01:32:53.631Z,15.47
2023-01-26T01:35:21.921Z,16.93
2023-01-26T01:37:50.163Z,16.87
2023-01-26T01:40:18.524Z,15.07
2023-01-26T01:42:49.888Z,15.87
2023-01-26T01:45:39.547Z,16.67
2023-01-26T01:48:08.579Z,18.30
2023-01-26T01:50:38.359Z,19.10
2023-01-26T01:53:06.865Z,19.67
2023-01-26T01:55:35.103Z,18.97
2023-01-26T01:58:03.323Z,17.50
2023-01-26T02:00:31.574Z,19.17
2023-01-26T02:03:16.670Z,19.67
2023-01-26T02:05:50.433Z,19.07
2023-01-26T02:08:18.743Z,18.30
2023-01-26T02:10:48.811Z,17.83
2023-01-26T02:13:17.757Z,19.70
2023-01-26T02:15:45.986Z,19.17
2023-01-26T02:18:16.499Z,17.50
2023-01-26T02:20:46.353Z,16.77
2023-01-26T02:23:21.397Z,17.30
2023-01-26T02:26:09.398Z,16.83
2023-01-26T02:28:39.115Z,16.50
2023-01-26T02:31:07.448Z,17.87
2023-01-26T02:33:35.883Z,18.13
2023-01-26T02:36:04.331Z,16.47
2023-01-26T02:38:39.363Z,17.87
2023-01-26T02:41:08.664Z,16.97
2023-01-26T02:43:37.334Z,17.50
2023-01-26T02:46:05.895Z,18.30
2023-01-26T02:48:52.289Z,18.20
2023-01-26T02:51:20.631Z,16.67
2023-01-26T02:53:48.924Z,17.13
2023-01-26T02:56:16.147Z,16.03
2023-01-26T02:58:45.814Z,16.37
2023-01-26T03:01:14.058Z,14.73
2023-01-26T03:03:45.743Z,16.27
2023-01-26T03:06:15.261Z,15.83
2023-01-26T03:08:43.572Z,15.70
2023-01-26T03:11:11.868Z,16.07
2023-01-26T03:13:40.196Z,15.03
2023-01-26T03:16:12.048Z,16.97
2023-01-26T03:18:57.773Z,14.57
2023-01-26T03:21:43.217Z,16.40
2023-01-26T03:24:29.770Z,16.10
2023-01-26T03:27:15.258Z,16.03
2023-01-26T03:29:43.517Z,14.70
2023-01-26T03:32:13.115Z,15.00
2023-01-26T03:34:41.391Z,14.20
2023-01-26T03:37:09.632Z,13.43
2023-01-26T03:39:55.331Z,13.13
2023-01-26T03:42:40.604Z,13.00
2023-01-26T03:45:26.844Z,13.30
2023-01-26T03:48:21.319Z,12.67
2023-01-26T03:51:06.752Z,14.13
2023-01-26T03:53:52.331Z,13.50
2023-01-26T03:56:22.941Z,13.30
2023-01-26T03:58:52.664Z,14.10
2023-01-26T04:01:21.765Z,14.20
2023-01-26T04:04:09.167Z,13.77
2023-01-26T04:06:55.494Z,13.60
2023-01-26T04:09:24.055Z,14.17
2023-01-26T04:11:52.303Z,13.00
2023-01-26T04:14:50.118Z,13.47
2023-01-26T04:17:36.557Z,14.10
2023-01-26T04:20:24.713Z,14.50
2023-01-26T04:22:52.949Z,15.20
2023-01-26T04:25:22.605Z,14.13
2023-01-26T04:27:50.856Z,14.47
2023-01-26T04:30:19.290Z,14.83
2023-01-26T04:32:47.658Z,15.80
2023-01-26T04:35:17.501Z,16.57
2023-01-26T04:37:45.791Z,16.50
2023-01-26T04:40:14.933Z,14.90
2023-01-26T04:42:43.245Z,16.33
2023-01-26T04:45:12.230Z,16.13
2023-01-26T04:47:40.445Z,16.50
2023-01-26T04:50:10.552Z,16.40
2023-01-26T04:52:40.402Z,15.93
2023-01-26T04:55:09.260Z,16.37
2023-01-26T04:57:37.507Z,15.10
2023-01-26T05:00:06.733Z,17.97
2023-01-26T05:02:34.979Z,16.73
2023-01-26T05:05:03.255Z,16.00
2023-01-26T05:07:31.666Z,15.60
2023-01-26T05:10:01.313Z,16.17
2023-01-26T05:12:35.186Z,17.37
2023-01-26T05:15:03.474Z,17.43
2023-01-26T05:17:31.705Z,16.30
2023-01-26T05:19:59.980Z,16.67
2023-01-26T05:22:28.329Z,15.73
2023-01-26T05:24:56.674Z,17.30
2023-01-26T05:27:26.335Z,17.90
2023-01-26T05:29:55.269Z,17.47
2023-01-26T05:32:23.497Z,18.60
2023-01-26T05:34:51.777Z,20.13
2023-01-26T05:37:20.004Z,19.60
2023-01-26T05:39:48.246Z,20.40
2023-01-26T05:42:16.601Z,21.43
2023-01-26T05:44:46.200Z,21.37
2023-01-26T05:47:14.424Z,20.20
2023-01-26T05:49:43.054Z,20.97
2023-01-26T05:52:11.715Z,20.80
2023-01-26T05:54:40.040Z,19.83
2023-01-26T05:57:08.375Z,20.47
2023-01-26T05:59:36.651Z,21.00
2023-01-26T06:02:06.437Z,20.70
2023-01-26T06:04:34.928Z,20.37
2023-01-26T06:07:03.239Z,20.90
2023-01-26T06:09:31.579Z,20.87
2023-01-26T06:11:59.816Z,20.60
2023-01-26T06:14:28.103Z,20.87
2023-01-26T06:16:56.977Z,20.87
2023-01-26T06:19:26.685Z,23.23
2023-01-26T06:21:54.952Z,21.07
2023-01-26T06:24:23.987Z,20.67
2023-01-26T06:26:52.313Z,20.70
2023-01-26T06:29:20.636Z,20.83
2023-01-26T06:31:48.947Z,18.80
2023-01-26T06:34:17.460Z,19.20
2023-01-26T06:36:47.158Z,18.87
2023-01-26T06:39:16.970Z,18.70
2023-01-26T06:41:45.373Z,18.00
2023-01-26T06:44:13.816Z,18.30
2023-01-26T06:46:42.068Z,20.03
2023-01-26T06:49:10.646Z,19.17
2023-01-26T06:51:48.594Z,20.73
2023-01-26T06:54:16.907Z,19.80
2023-01-26T06:56:45.744Z,18.23
2023-01-26T06:59:14.717Z,18.93
2023-01-26T07:01:44.206Z,19.10
2023-01-26T07:04:12.526Z,19.87
2023-01-26T07:06:40.752Z,19.37
2023-01-26T07:09:10.649Z,20.13
2023-01-26T07:11:38.966Z,21.10
2023-01-26T07:14:07.311Z,20.20
2023-01-26T07:16:35.605Z,20.33
2023-01-26T07:19:03.903Z,20.10
2023-01-26T07:21:32.137Z,21.07
2023-01-26T07:24:00.391Z,20.63
2023-01-26T07:26:30.037Z,19.00
2023-01-26T07:28:58.249Z,20.17
2023-01-26T07:31:26.585Z,19.50
2023-01-26T07:33:54.919Z,19.30
2023-01-26T07:36:23.230Z,19.23
2023-01-26T07:38:51.476Z,20.33
2023-01-26T07:41:19.732Z,19.27
2023-01-26T07:43:50.982Z,18.87
2023-01-26T07:46:19.420Z,19.67
2023-01-26T07:48:47.771Z,18.60
2023-01-26T07:51:15.984Z,19.67
2023-01-26T07:53:50.021Z,19.10
2023-01-26T07:56:20.603Z,18.73
2023-01-26T07:58:53.449Z,18.23
2023-01-26T08:01:22.287Z,18.57
2023-01-26T08:03:51.926Z,17.90
2023-01-26T08:06:20.203Z,19.30
2023-01-26T08:08:51.103Z,18.00
2023-01-26T08:11:20.003Z,18.37
2023-01-26T08:13:48.555Z,19.57
2023-01-26T08:16:18.313Z,18.37
2023-01-26T08:18:47.248Z,18.40
2023-01-26T08:21:16.432Z,18.33
2023-01-26T08:23:44.886Z,19.07
2023-01-26T08:26:13.967Z,18.70
2023-01-26T08:28:42.371Z,17.97
2023-01-26T08:31:12.275Z,18.77
2023-01-26T08:33:42.271Z,18.47
2023-01-26T08:36:12.138Z,18.87
2023-01-26T08:38:40.381Z,18.57
2023-01-26T08:41:08.676Z,19.37
2023-01-26T08:43:37.059Z,19.30
2023-01-26T08:46:05.517Z,18.90
2023-01-26T08:48:33.793Z,20.50
2023-01-26T08:51:04.356Z,19.97
2023-01-26T08:53:33.192Z,20.60
2023-01-26T08:56:02.865Z,20.27
2023-01-26T08:58:31.612Z,21.53
2023-01-26T09:00:59.933Z,19.57
2023-01-26T09:03:28.227Z,20.17
2023-01-26T09:05:59.896Z,19.87
2023-01-26T09:08:29.610Z,20.33
2023-01-26T09:10:57.889Z,20.53
2023-01-26T09:13:26.195Z,20.43
2023-01-26T09:15:54.533Z,19.30
2023-01-26T09:18:22.851Z,19.47
2023-01-26T09:20:51.604Z,20.33
2023-01-26T09:23:20.740Z,19.73
2023-01-26T09:25:54.122Z,20.47
2023-01-26T09:28:22.483Z,21.97
2023-01-26T09:30:50.825Z,18.87
2023-01-26T09:33:19.182Z,19.23
2023-01-26T09:35:47.610Z,18.50
2023-01-26T09:38:15.857Z,17.90
2023-01-26T09:40:47.302Z,18.20
2023-01-26T09:43:24.110Z,19.03
2023-01-26T09:45:56.439Z,18.53
2023-01-26T09:48:29.866Z,18.60
2023-01-26T09:51:01.104Z,17.37
2023-01-26T09:53:32.978Z,21.53
2023-01-26T09:56:01.236Z,26.60
2023-01-26T09:58:35.743Z,18.67
2023-01-26T10:01:04.094Z,20.00
2023-01-26T10:03:35.325Z,17.27
2023-01-26T10:06:07.271Z,18.30
2023-01-26T10:08:35.623Z,17.50
2023-01-26T10:11:05.925Z,19.03
2023-01-26T10:13:35.618Z,18.17
2023-01-26T10:16:06.612Z,18.53
2023-01-26T10:18:37.132Z,19.57
2023-01-26T10:21:05.644Z,18.40
2023-01-26T10:23:34.642Z,18.70
2023-01-26T10:26:09.069Z,21.17
2023-01-26T10:28:38.769Z,19.30
2023-01-26T10:31:08.382Z,19.43
2023-01-26T10:33:37.778Z,17.60
2023-01-26T10:36:07.634Z,18.17
2023-01-26T10:38:43.154Z,19.93
2023-01-26T10:41:29.813Z,18.70
2023-01-26T10:44:00.360Z,18.23
2023-01-26T10:46:30.753Z,18.37
2023-01-26T10:49:00.227Z,19.20
2023-01-26T10:51:31.685Z,19.57
2023-01-26T10:54:16.758Z,20.53
2023-01-26T10:56:48.719Z,19.73
2023-01-26T10:59:37.670Z,23.97
2023-01-26T11:02:24.353Z,27.00
2023-01-26T11:05:20.855Z,20.13
2023-01-26T11:07:49.795Z,19.43
2023-01-26T11:10:20.028Z,17.07
2023-01-26T11:12:48.636Z,16.30
2023-01-26T11:15:22.347Z,16.10
2023-01-26T11:17:53.290Z,14.57
2023-01-26T11:20:40.008Z,14.90
2023-01-26T11:23:12.313Z,16.03
2023-01-26T11:25:43.736Z,19.67
2023-01-26T11:28:21.426Z,17.20
2023-01-26T11:30:56.989Z,16.37
2023-01-26T11:33:30.341Z,16.83
2023-01-26T11:36:02.088Z,17.93
2023-01-26T11:38:38.595Z,16.57
2023-01-26T11:41:18.489Z,16.87
2023-01-26T11:44:17.537Z,16.23
2023-01-26T11:46:55.067Z,15.80
2023-01-26T11:49:34.300Z,17.60
2023-01-26T11:52:06.276Z,16.20
2023-01-26T11:54:44.585Z,17.27
2023-01-26T11:57:18.870Z,16.30
2023-01-26T11:59:49.514Z,15.13
2023-01-26T12:02:27.803Z,16.50
2023-01-26T12:04:57.277Z,16.83
2023-01-26T12:07:28.613Z,15.37
2023-01-26T12:09:56.899Z,15.87
2023-01-26T12:12:28.004Z,17.30
2023-01-26T12:14:58.485Z,15.20
2023-01-26T12:17:31.822Z,17.43
2023-01-26T12:20:04.948Z,17.33
2023-01-26T12:22:35.289Z,16.47
2023-01-26T12:25:20.493Z,16.10
2023-01-26T12:27:51.378Z,17.83
2023-01-26T12:30:26.345Z,17.63
2023-01-26T12:32:56.056Z,15.37
2023-01-26T12:35:30.776Z,15.47
2023-01-26T12:38:16.609Z,16.57
2023-01-26T12:40:48.208Z,17.03
2023-01-26T12:43:24.397Z,17.30
2023-01-26T12:45:53.918Z,17.80
2023-01-26T12:48:24.402Z,17.77
2023-01-26T12:50:54.871Z,16.67
2023-01-26T12:53:24.552Z,14.90
2023-01-26T12:55:54.171Z,16.80
2023-01-26T12:58:24.029Z,16.93
2023-01-26T13:00:53.922Z,15.93
2023-01-26T13:03:25.777Z,16.10
2023-01-26T13:05:58.028Z,15.23
2023-01-26T13:08:53.740Z,16.23
2023-01-26T13:11:44.454Z,15.17
2023-01-26T13:14:33.028Z,14.73
2023-01-26T13:17:50.327Z,15.67
2023-01-26T13:20:45.005Z,16.87
2023-01-26T13:23:41.740Z,16.23
2023-01-26T13:26:17.766Z,15.77
2023-01-26T13:28:46.328Z,17.10
2023-01-26T13:31:14.973Z,17.30
2023-01-26T13:33:43.296Z,17.50
2023-01-26T13:36:16.301Z,17.57
2023-01-26T13:38:45.214Z,15.83
2023-01-26T13:41:18.303Z,15.23
2023-01-26T13:43:50.565Z,16.87
2023-01-26T13:46:22.268Z,16.40
2023-01-26T13:48:51.121Z,18.03
2023-01-26T13:51:21.780Z,20.33
2023-01-26T13:53:58.437Z,20.57
2023-01-26T13:56:29.045Z,20.20
2023-01-26T13:59:05.617Z,20.73
2023-01-26T14:01:33.925Z,19.30
2023-01-26T14:04:06.208Z,21.27
2023-01-26T14:06:36.689Z,20.50
2023-01-26T14:09:05.477Z,21.83
2023-01-26T14:11:34.493Z,20.60
2023-01-26T14:14:04.063Z,20.47
2023-01-26T14:16:33.200Z,21.17
2023-01-26T14:19:08.476Z,22.97
2023-01-26T14:21:48.838Z,21.97
2023-01-26T14:24:17.137Z,22.70
2023-01-26T14:26:45.382Z,20.47
2023-01-26T14:29:14.588Z,20.80
2023-01-26T14:31:42.873Z,19.87
2023-01-26T14:34:11.627Z,20.10
2023-01-26T14:36:40.368Z,19.53
2023-01-26T14:39:17.606Z,19.63
2023-01-26T14:41:45.955Z,19.47
2023-01-26T14:44:14.263Z,19.17
2023-01-26T14:46:52.344Z,17.57
2023-01-26T14:49:22.022Z,16.50
2023-01-26T14:51:50.930Z,19.13
2023-01-26T14:54:23.580Z,18.13
2023-01-26T14:56:51.843Z,19.63
2023-01-26T14:59:21.946Z,19.17
2023-01-26T15:01:50.374Z,20.97
2023-01-26T15:04:23.371Z,21.70
2023-01-26T15:06:51.629Z,21.20
2023-01-26T15:09:24.449Z,21.63
2023-01-26T15:12:13.653Z,21.60
2023-01-26T15:14:49.716Z,21.93
2023-01-26T15:17:38.924Z,21.87
2023-01-26T15:20:27.738Z,21.20
2023-01-26T15:22:56.158Z,23.77
2023-01-26T15:25:27.312Z,21.73
2023-01-26T15:27:58.767Z,19.93
2023-01-26T15:30:28.610Z,18.73
2023-01-26T15:32:57.785Z,18.57
2023-01-26T15:35:26.791Z,20.00
2023-01-26T15:38:01.905Z,20.10
2023-01-26T15:40:31.567Z,20.70
2023-01-26T15:43:15.042Z,21.33
2023-01-26T15:45:44.599Z,20.40
2023-01-26T15:48:13.027Z,20.73
2023-01-26T15:50:41.275Z,24.47
2023-01-26T15:53:13.440Z,26.13
2023-01-26T15:55:44.351Z,23.73
2023-01-26T15:58:12.663Z,24.60
2023-01-26T16:00:40.963Z,24.23
2023-01-26T16:03:13.338Z,24.77
2023-01-26T16:05:42.151Z,22.40
2023-01-26T16:08:10.624Z,20.13
2023-01-26T16:10:39.145Z,19.77
2023-01-26T16:13:11.416Z,20.10
2023-01-26T16:15:41.540Z,21.30
2023-01-26T16:18:09.942Z,20.50
2023-01-26T16:20:39.615Z,22.10
2023-01-26T16:23:10.765Z,21.53
2023-01-26T16:25:39.552Z,21.47
2023-01-26T16:28:07.852Z,21.53
2023-01-26T16:30:37.518Z,22.37
2023-01-26T16:33:05.875Z,22.67
2023-01-26T16:35:35.769Z,23.10
2023-01-26T16:38:05.313Z,22.90
2023-01-26T16:40:33.610Z,21.00
2023-01-26T16:43:02.462Z,21.27
2023-01-26T16:45:30.903Z,20.30
2023-01-26T16:48:00.576Z,20.20
2023-01-26T16:50:31.337Z,21.43
2023-01-26T16:53:16.876Z,19.97
2023-01-26T16:55:45.208Z,22.33
2023-01-26T16:58:13.589Z,21.70
2023-01-26T17:00:41.909Z,21.07
2023-01-26T17:03:13.032Z,22.87
2023-01-26T17:05:41.718Z,22.97
2023-01-26T17:08:10.045Z,24.23
2023-01-26T17:10:43.408Z,23.70
2023-01-26T17:13:17.329Z,26.53
2023-01-26T17:15:46.710Z,37.43
2023-01-26T17:18:16.528Z,37.03
2023-01-26T17:20:44.756Z,30.40
2023-01-26T17:23:13.064Z,31.47
2023-01-26T17:25:41.303Z,34.50
2023-01-26T17:28:09.626Z,37.90
2023-01-26T17:30:38.409Z,39.53
2023-01-26T17:33:06.931Z,45.47
2023-01-26T17:35:36.598Z,42.57
2023-01-26T17:38:05.279Z,39.37
2023-01-26T17:40:33.712Z,34.70
2023-01-26T17:43:02.012Z,33.07
2023-01-26T17:45:30.406Z,35.17
2023-01-26T17:47:58.770Z,28.93
2023-01-26T17:50:27.151Z,28.80
2023-01-26T17:52:56.800Z,27.90
2023-01-26T17:55:25.074Z,29.03
2023-01-26T17:57:53.418Z,26.47
2023-01-26T18:00:22.363Z,28.97
2023-01-26T18:02:50.601Z,31.07
2023-01-26T18:05:18.888Z,32.80
2023-01-26T18:07:47.135Z,34.33
2023-01-26T18:10:16.954Z,31.20
2023-01-26T18:12:45.285Z,30.13
2023-01-26T18:15:13.809Z,29.47
2023-01-26T18:17:42.218Z,28.53
2023-01-26T18:20:12.134Z,29.47
2023-01-26T18:22:40.355Z,30.03
2023-01-26T18:25:09.515Z,31.60
2023-01-26T18:27:39.218Z,31.23
2023-01-26T18:30:09.575Z,32.10
2023-01-26T18:32:39.116Z,33.97
2023-01-26T18:35:08.129Z,32.00
2023-01-26T18:37:36.480Z,30.53
2023-01-26T18:40:05.273Z,32.73
2023-01-26T18:42:33.643Z,31.17
2023-01-26T18:45:03.386Z,33.50
2023-01-26T18:47:31.977Z,32.97
2023-01-26T18:50:00.325Z,35.83
2023-01-26T18:52:30.891Z,36.40
2023-01-26T18:54:59.407Z,37.00
2023-01-26T18:57:27.684Z,38.07
2023-01-26T18:59:55.936Z,37.80
2023-01-26T19:02:25.725Z,38.50
2023-01-26T19:04:55.155Z,39.30
2023-01-26T19:07:23.581Z,43.77
2023-01-26T19:09:52.003Z,43.83
2023-01-26T19:12:20.621Z,44.60
2023-01-26T19:14:48.948Z,43.63
2023-01-26T19:17:18.200Z,44.23
2023-01-26T19:19:47.935Z,45.00
2023-01-26T19:22:16.178Z,47.57
2023-01-26T19:24:44.637Z,45.97
2023-01-26T19:27:13.575Z,50.23
2023-01-26T19:29:41.829Z,47.57
2023-01-26T19:32:10.309Z,50.27
2023-01-26T19:34:38.628Z,51.77
2023-01-26T19:37:08.270Z,52.93
2023-01-26T19:39:36.744Z,49.63
2023-01-26T19:42:05.148Z,49.67
2023-01-26T19:44:33.454Z,50.83
2023-01-26T19:47:01.726Z,49.17
2023-01-26T19:49:30.127Z,49.67
2023-01-26T19:51:58.448Z,47.77
2023-01-26T19:54:28.244Z,48.30
2023-01-26T19:56:56.586Z,48.20
2023-01-26T19:59:26.757Z,48.40
2023-01-26T20:01:55.008Z,49.03
2023-01-26T20:04:23.379Z,47.83
2023-01-26T20:06:51.653Z,47.93
2023-01-26T20:09:19.970Z,48.33
2023-01-26T20:11:50.022Z,47.77
2023-01-26T20:14:18.315Z,39.03
2023-01-26T20:16:46.702Z,35.17
2023-01-26T20:19:15.135Z,31.63
2023-01-26T20:21:43.495Z,28.90
2023-01-26T20:24:12.504Z,28.80
2023-01-26T20:26:42.692Z,25.47
2023-01-26T20:29:14.082Z,25.70
2023-01-26T20:31:43.258Z,25.00
2023-01-26T20:34:11.694Z,27.20
2023-01-26T20:36:40.577Z,25.47
2023-01-26T20:39:09.086Z,25.17
2023-01-26T20:41:37.447Z,24.43
2023-01-26T20:44:07.000Z,23.77
2023-01-26T20:46:38.042Z,23.03
2023-01-26T20:49:08.683Z,21.13
2023-01-26T20:51:39.535Z,20.57
2023-01-26T20:54:08.485Z,20.67
2023-01-26T20:56:37.047Z,19.53
2023-01-26T20:59:05.699Z,17.83
2023-01-26T21:01:34.986Z,18.73
2023-01-26T21:04:05.577Z,20.33
2023-01-26T21:06:33.929Z,19.80
2023-01-26T21:09:02.273Z,19.43
2023-01-26T21:11:31.395Z,20.17
2023-01-26T21:14:00.664Z,21.47
2023-01-26T21:16:29.556Z,21.90
2023-01-26T21:18:57.992Z,19.13
2023-01-26T21:21:28.073Z,23.30
2023-01-26T21:23:56.887Z,23.43
2023-01-26T21:26:26.016Z,24.73
2023-01-26T21:28:55.324Z,24.23
2023-01-26T21:31:25.034Z,24.00
2023-01-26T21:33:53.424Z,23.60
2023-01-26T21:36:22.502Z,24.17
2023-01-26T21:38:53.281Z,24.30
2023-01-26T21:41:39.802Z,22.87
2023-01-26T21:44:09.083Z,24.23
2023-01-26T21:46:37.332Z,25.00
2023-01-26T21:49:05.824Z,23.67
2023-01-26T21:51:51.538Z,24.30
2023-01-26T21:54:21.336Z,22.77
2023-01-26T21:56:49.662Z,20.90
2023-01-26T21:59:17.264Z,22.33
2023-01-26T22:01:46.433Z,22.77
2023-01-26T22:04:16.339Z,20.93
2023-01-26T22:06:44.707Z,18.63
2023-01-26T22:09:14.113Z,19.33
2023-01-26T22:11:43.909Z,20.00
2023-01-26T22:14:14.857Z,19.53
2023-01-26T22:16:43.370Z,19.90
2023-01-26T22:19:11.987Z,21.23
2023-01-26T22:21:40.264Z,23.37
2023-01-26T22:24:11.643Z,23.77
2023-01-26T22:26:44.967Z,22.17
2023-01-26T22:29:13.585Z,22.70
2023-01-26T22:31:41.956Z,26.10
2023-01-26T22:34:11.408Z,26.67
2023-01-26T22:36:39.951Z,29.73
2023-01-26T22:39:08.318Z,27.97
2023-01-26T22:41:37.786Z,27.00
2023-01-26T22:44:07.717Z,26.90
2023-01-26T22:46:36.865Z,27.23
2023-01-26T22:49:05.961Z,27.50
2023-01-26T22:51:37.172Z,26.13
2023-01-26T22:54:05.819Z,28.27
2023-01-26T22:56:34.094Z,27.13
2023-01-26T22:59:02.420Z,27.93
2023-01-26T23:01:33.084Z,26.27
2023-01-26T23:04:01.754Z,27.43
2023-01-26T23:06:30.141Z,27.97
2023-01-26T23:09:01.153Z,29.27
2023-01-26T23:11:30.141Z,29.30
2023-01-26T23:13:59.264Z,29.37
2023-01-26T23:16:27.651Z,29.03
2023-01-26T23:18:58.133Z,29.43
2023-01-26T23:21:26.626Z,29.87
2023-01-26T23:23:54.925Z,31.50
2023-01-26T23:26:23.385Z,33.80
2023-01-26T23:28:51.640Z,32.60
2023-01-26T23:31:20.143Z,35.70
2023-01-26T23:33:48.594Z,33.67
2023-01-26T23:36:18.291Z,34.30
2023-01-26T23:38:46.763Z,34.77
2023-01-26T23:41:15.065Z,35.83
2023-01-26T23:43:43.348Z,35.47
2023-01-26T23:46:11.577Z,36.47
2023-01-26T23:48:39.849Z,34.60
2023-01-26T23:51:09.705Z,34.43
2023-01-26T23:53:39.388Z,34.87
2023-01-26T23:56:08.556Z,34.10
2023-01-26T23:58:37.702Z,34.03
